Time;durP1;ratioP1;P1;durP2;ratioP2;P2;SDS_P1;SDS_P2;PMS_P1;PMS_P2;Temp;Humidity;BMP_temperature;BMP_pressure;BME280_temperature;BME280_humidity;BME280_pressure;Samples;Min_cycle;Max_cycle;Signal;HPM_P1;HPM_P2
2024/02/21 00:00:11;;;;;;;27.70;9.40;;;;;10.00;99455.00;;;;4858483;29;20076;-67
2024/02/21 00:02:37;;;;;;;23.30;9.38;;;;;10.00;99460.00;;;;4843138;29;20057;-67
2024/02/21 00:05:04;;;;;;;19.70;8.82;;;;;10.00;99445.00;;;;4859588;29;20053;-68
2024/02/21 00:07:31;;;;;;;18.67;7.90;;;;;9.90;99444.00;;;;4859680;29;20053;-67
2024/02/21 00:09:57;;;;;;;39.72;13.30;;;;;9.90;99445.00;;;;4858459;29;20045;-67
2024/02/21 00:12:24;;;;;;;25.98;9.43;;;;;9.90;99436.00;;;;4857960;29;20059;-67
2024/02/21 00:14:50;;;;;;;18.65;7.93;;;;;9.90;99427.00;;;;4858368;29;20045;-67
2024/02/21 00:17:17;;;;;;;38.58;11.85;;;;;9.80;99426.00;;;;4858311;29;20535;-66
2024/02/21 00:19:44;;;;;;;23.38;8.60;;;;;9.80;99426.00;;;;4844347;29;20056;-66
2024/02/21 00:22:10;;;;;;;24.13;8.45;;;;;9.80;99422.00;;;;4846280;29;20058;-66
2024/02/21 00:24:37;;;;;;;36.55;12.20;;;;;9.80;99409.00;;;;4861683;29;20068;-66
2024/02/21 00:27:03;;;;;;;17.15;7.22;;;;;9.70;99411.00;;;;4862910;29;20064;-66
2024/02/21 00:29:30;;;;;;;15.25;6.60;;;;;9.70;99402.00;;;;4862796;29;20042;-66
2024/02/21 00:31:56;;;;;;;20.20;6.70;;;;;9.70;99396.00;;;;4861440;29;20049;-66
2024/02/21 00:34:24;;;;;;;16.88;6.55;;;;;9.70;99391.00;;;;4846073;29;20598;-66
2024/02/21 00:36:50;;;;;;;12.43;5.60;;;;;9.70;99409.00;;;;4861552;29;20084;-66
2024/02/21 00:39:17;;;;;;;17.05;6.20;;;;;9.70;99399.00;;;;4861481;29;20049;-66
2024/02/21 00:41:43;;;;;;;20.10;7.07;;;;;9.80;99390.00;;;;4860909;29;20053;-66
2024/02/21 00:44:10;;;;;;;13.25;5.85;;;;;9.80;99389.00;;;;4862325;29;20060;-66
2024/02/21 00:46:38;;;;;;;12.98;5.93;;;;;9.80;99389.00;;;;4845947;29;20061;-66
2024/02/21 00:49:05;;;;;;;11.20;6.38;;;;;9.80;99384.00;;;;4861313;29;20060;-66
2024/02/21 00:51:32;;;;;;;15.52;6.57;;;;;9.80;99386.00;;;;4863176;29;20411;-65
2024/02/21 00:53:58;;;;;;;12.20;6.47;;;;;9.80;99388.00;;;;4861127;29;20563;-66
2024/02/21 00:56:25;;;;;;;15.20;7.72;;;;;9.70;99380.00;;;;4861030;29;20054;-66
2024/02/21 00:58:51;;;;;;;14.13;7.35;;;;;9.80;99376.00;;;;4862685;29;20173;-66
2024/02/21 01:01:23;;;;;;;15.57;7.28;;;;;9.80;99371.00;;;;4861922;29;20114;-66
2024/02/21 01:03:53;;;;;;;16.15;7.03;;;;;9.70;99372.00;;;;4845702;29;20049;-66
2024/02/21 01:06:20;;;;;;;17.75;6.43;;;;;9.70;99376.00;;;;4861331;29;20499;-66
2024/02/21 01:08:50;;;;;;;14.07;6.32;;;;;9.70;99370.00;;;;4861353;29;20057;-66
2024/02/21 01:11:16;;;;;;;15.57;6.40;;;;;9.60;99370.00;;;;4861839;29;20053;-66
2024/02/21 01:13:44;;;;;;;12.48;5.53;;;;;9.60;99372.00;;;;4861582;29;20132;-66
2024/02/21 01:16:10;;;;;;;23.05;7.40;;;;;9.60;99380.00;;;;4861835;29;20109;-66
2024/02/21 01:18:39;;;;;;;17.38;6.60;;;;;9.60;99377.00;;;;4845471;29;20460;-66
2024/02/21 01:21:07;;;;;;;17.38;6.53;;;;;9.60;99364.00;;;;4860527;29;20057;-66
2024/02/21 01:23:34;;;;;;;10.52;5.63;;;;;9.60;99361.00;;;;4862052;29;20053;-66
2024/02/21 01:26:02;;;;;;;16.15;6.05;;;;;9.50;99365.00;;;;4861966;29;20499;-66
2024/02/21 01:28:29;;;;;;;13.35;5.63;;;;;9.50;99368.00;;;;4860217;29;20499;-66
2024/02/21 01:30:55;;;;;;;17.48;7.63;;;;;9.50;99359.00;;;;4844323;29;20436;-66
2024/02/21 01:33:22;;;;;;;16.38;6.68;;;;;9.40;99350.00;;;;4860412;29;20491;-66
2024/02/21 01:35:49;;;;;;;18.27;6.85;;;;;9.40;99341.00;;;;4861824;29;20411;-66
2024/02/21 01:38:16;;;;;;;14.50;7.22;;;;;9.40;99346.00;;;;4860437;29;20041;-66
2024/02/21 01:40:43;;;;;;;17.30;6.90;;;;;9.40;99337.00;;;;4844697;29;20094;-66
2024/02/21 01:43:19;;;;;;;21.85;6.45;;;;;9.40;99332.00;;;;4861199;29;20053;-66
2024/02/21 01:45:49;;;;;;;17.67;6.63;;;;;9.40;99342.00;;;;4845006;29;20133;-66
2024/02/21 01:48:21;;;;;;;16.17;6.80;;;;;9.30;99335.00;;;;4861491;29;20382;-66
2024/02/21 01:50:49;;;;;;;18.58;6.80;;;;;9.30;99327.00;;;;4861094;29;20049;-66
2024/02/21 01:53:21;;;;;;;16.08;7.18;;;;;9.30;99329.00;;;;4861337;29;20049;-66
2024/02/21 01:55:48;;;;;;;15.85;6.40;;;;;9.40;99327.00;;;;4861243;29;20057;-66
2024/02/21 01:58:15;;;;;;;14.85;6.30;;;;;9.40;99319.00;;;;4861157;29;20049;-66
2024/02/21 02:00:44;;;;;;;14.30;6.38;;;;;9.40;99326.00;;;;4859640;29;20451;-66
2024/02/21 02:03:16;;;;;;;13.90;6.15;;;;;9.40;99326.00;;;;4859862;29;20514;-66
2024/02/21 02:05:47;;;;;;;18.08;5.93;;;;;9.40;99339.00;;;;4861162;29;20049;-66
2024/02/21 02:08:22;;;;;;;13.68;5.88;;;;;9.40;99324.00;;;;4861144;29;20109;-66
2024/02/21 02:10:49;;;;;;;17.80;6.25;;;;;9.40;99315.00;;;;4860709;29;20042;-66
2024/02/21 02:13:15;;;;;;;16.33;6.00;;;;;9.40;99290.00;;;;4860605;29;20136;-66
2024/02/21 02:15:46;;;;;;;16.05;5.55;;;;;9.40;99289.00;;;;4860807;29;20049;-66
2024/02/21 02:18:14;;;;;;;16.98;5.78;;;;;9.30;99292.00;;;;4861026;29;20059;-66
2024/02/21 02:20:41;;;;;;;18.55;6.45;;;;;9.30;99292.00;;;;4859371;29;20052;-66
2024/02/21 02:23:14;;;;;;;14.77;6.30;;;;;9.30;99277.00;;;;4860681;29;20446;-66
2024/02/21 02:25:41;;;;;;;13.10;6.50;;;;;9.30;99283.00;;;;4859506;29;20057;-66
2024/02/21 02:28:08;;;;;;;15.77;6.55;;;;;9.20;99277.00;;;;4860607;29;20049;-66
2024/02/21 02:30:37;;;;;;;16.25;5.72;;;;;9.10;99271.00;;;;4859121;29;20080;-66
2024/02/21 02:33:04;;;;;;;16.70;5.72;;;;;9.10;99254.00;;;;4859357;29;20077;-66
2024/02/21 02:35:32;;;;;;;16.77;5.40;;;;;9.10;99251.00;;;;4859390;29;20050;-66
2024/02/21 02:37:59;;;;;;;14.27;6.15;;;;;9.00;99246.00;;;;4860577;29;20038;-66
2024/02/21 02:40:25;;;;;;;12.38;6.07;;;;;9.00;99251.00;;;;4859159;29;20053;-65
2024/02/21 02:42:54;;;;;;;14.05;6.10;;;;;9.00;99238.00;;;;4858916;29;20092;-65
2024/02/21 02:45:26;;;;;;;14.95;5.75;;;;;9.00;99241.00;;;;4860358;29;20049;-65
2024/02/21 02:47:59;;;;;;;8.98;5.13;;;;;9.10;99247.00;;;;4859228;29;20123;-65
2024/02/21 02:50:27;;;;;;;15.60;6.73;;;;;9.10;99246.00;;;;4860057;29;20077;-65
2024/02/21 02:52:54;;;;;;;13.25;5.55;;;;;9.10;99237.00;;;;4860250;29;20140;-65
2024/02/21 02:55:21;;;;;;;13.63;5.78;;;;;9.20;99241.00;;;;4859168;29;20505;-65
2024/02/21 02:57:47;;;;;;;16.17;5.97;;;;;9.20;99235.00;;;;4859985;29;20057;-65
2024/02/21 03:00:14;;;;;;;20.75;6.13;;;;;9.30;99233.00;;;;4860757;29;20042;-64
2024/02/21 03:02:42;;;;;;;13.50;6.25;;;;;9.40;99239.00;;;;4860965;29;20052;-66
2024/02/21 03:05:14;;;;;;;13.75;5.28;;;;;9.40;99235.00;;;;4859297;29;20521;-66
2024/02/21 03:07:41;;;;;;;14.25;4.82;;;;;9.40;99224.00;;;;4860448;29;20577;-65
2024/02/21 03:10:09;;;;;;;18.30;6.45;;;;;9.40;99215.00;;;;4859130;29;20056;-65
2024/02/21 03:12:36;;;;;;;16.75;6.78;;;;;9.40;99214.00;;;;4859611;29;20053;-66
2024/02/21 03:15:03;;;;;;;12.70;5.57;;;;;9.40;99218.00;;;;4858849;29;20056;-66
2024/02/21 03:17:30;;;;;;;16.23;6.30;;;;;9.30;99214.00;;;;4859072;29;20125;-65
2024/02/21 03:19:57;;;;;;;14.05;5.90;;;;;9.40;99215.00;;;;4858877;29;20128;-66
2024/02/21 03:22:23;;;;;;;12.63;5.30;;;;;9.40;99206.00;;;;4858991;29;20105;-65
2024/02/21 03:24:50;;;;;;;21.42;6.28;;;;;9.30;99205.00;;;;4858919;29;20049;-66
2024/02/21 03:27:17;;;;;;;14.40;5.13;;;;;9.30;99217.00;;;;4859734;29;20042;-66
2024/02/21 03:29:43;;;;;;;13.50;5.22;;;;;9.40;99204.00;;;;4858915;29;20503;-66
2024/02/21 03:32:10;;;;;;;14.18;5.07;;;;;9.40;99208.00;;;;4859797;29;20088;-66
2024/02/21 03:34:36;;;;;;;12.25;5.47;;;;;9.40;99198.00;;;;4860041;29;20050;-67
2024/02/21 03:37:03;;;;;;;16.65;5.50;;;;;9.50;99206.00;;;;4858649;29;20082;-66
2024/02/21 03:39:33;;;;;;;16.55;5.13;;;;;9.60;99206.00;;;;4858557;29;20061;-65
2024/02/21 03:42:04;;;;;;;11.60;5.63;;;;;9.60;99199.00;;;;4858054;29;20053;-66
2024/02/21 03:44:31;;;;;;;16.35;6.03;;;;;9.60;99203.00;;;;4858436;29;20050;-65
2024/02/21 03:47:02;;;;;;;15.63;4.88;;;;;9.60;99219.00;;;;4858468;29;20053;-66
2024/02/21 03:49:28;;;;;;;15.85;5.57;;;;;9.60;99213.00;;;;4858448;29;20502;-65
2024/02/21 03:51:56;;;;;;;14.85;5.30;;;;;9.60;99219.00;;;;4858028;29;20045;-66
2024/02/21 03:54:22;;;;;;;15.95;5.97;;;;;9.50;99210.00;;;;4860592;29;20057;-66
2024/02/21 03:56:49;;;;;;;13.70;5.57;;;;;9.60;99215.00;;;;4862125;29;20053;-67
2024/02/21 03:59:16;;;;;;;12.52;5.40;;;;;9.50;99215.00;;;;4862244;29;20069;-66
2024/02/21 04:01:42;;;;;;;17.33;6.60;;;;;9.50;99208.00;;;;4861682;29;20045;-66
2024/02/21 04:04:10;;;;;;;15.45;4.80;;;;;9.50;99194.00;;;;4861885;29;20053;-66
2024/02/21 04:06:36;;;;;;;13.23;4.95;;;;;9.50;99187.00;;;;4863347;29;20136;-66
2024/02/21 04:09:03;;;;;;;14.07;5.57;;;;;9.40;99182.00;;;;4863086;29;20068;-66
2024/02/21 04:11:30;;;;;;;13.95;5.13;;;;;9.30;99186.00;;;;4861496;29;20413;-66
2024/02/21 04:13:56;;;;;;;15.02;5.57;;;;;9.30;99186.00;;;;4862558;29;20053;-66
2024/02/21 04:16:23;;;;;;;12.65;5.20;;;;;9.30;99193.00;;;;4861753;29;20516;-66
2024/02/21 04:18:50;;;;;;;12.13;5.18;;;;;9.30;99181.00;;;;4861721;29;20414;-66
2024/02/21 04:21:17;;;;;;;13.15;5.32;;;;;9.30;99176.00;;;;4862578;29;20077;-67
2024/02/21 04:23:44;;;;;;;16.27;5.60;;;;;9.40;99177.00;;;;4846592;29;20318;-67
2024/02/21 04:26:13;;;;;;;11.75;5.40;;;;;9.40;99164.00;;;;4862379;29;20368;-67
2024/02/21 04:28:40;;;;;;;18.55;5.97;;;;;9.40;99170.00;;;;4862409;29;20052;-67
2024/02/21 04:31:06;;;;;;;10.07;5.05;;;;;9.40;99168.00;;;;4863044;29;20360;-67
2024/02/21 04:33:33;;;;;;;11.68;4.93;;;;;9.40;99157.00;;;;4863451;29;20139;-67
2024/02/21 04:36:00;;;;;;;12.55;4.88;;;;;9.50;99159.00;;;;4862384;29;20434;-68
2024/02/21 04:38:27;;;;;;;12.57;4.70;;;;;9.50;99147.00;;;;4861731;29;20053;-66
2024/02/21 04:40:53;;;;;;;21.52;5.90;;;;;9.50;99141.00;;;;4862540;29;20056;-67
2024/02/21 04:43:20;;;;;;;13.48;4.57;;;;;9.50;99139.00;;;;4861109;29;20079;-66
2024/02/21 04:45:47;;;;;;;13.00;4.35;;;;;9.40;99147.00;;;;4854425;29;20077;-66
2024/02/21 04:48:13;;;;;;;14.60;5.63;;;;;9.40;99152.00;;;;4858079;29;20439;-66
2024/02/21 04:50:41;;;;;;;14.45;5.40;;;;;9.30;99138.00;;;;4842330;29;20160;-66
2024/02/21 04:53:07;;;;;;;12.07;5.13;;;;;9.20;99130.00;;;;4873425;29;20376;-66
2024/02/21 04:55:34;;;;;;;13.23;5.15;;;;;9.20;99133.00;;;;4843832;29;20046;-66
2024/02/21 04:58:02;;;;;;;13.43;4.90;;;;;9.30;99145.00;;;;4857731;29;20054;-66
2024/02/21 05:00:29;;;;;;;13.15;4.63;;;;;9.30;99125.00;;;;4873170;29;20060;-66
2024/02/21 05:02:55;;;;;;;11.25;5.65;;;;;9.30;99117.00;;;;4857787;29;20057;-66
2024/02/21 05:05:22;;;;;;;13.63;5.57;;;;;9.20;99118.00;;;;4872635;29;20060;-66
2024/02/21 05:07:48;;;;;;;9.07;5.57;;;;;9.20;99118.00;;;;4857085;29;20054;-67
2024/02/21 05:10:17;;;;;;;12.63;5.15;;;;;9.10;99124.00;;;;4843439;29;20120;-69
2024/02/21 05:12:44;;;;;;;12.75;5.72;;;;;9.10;99119.00;;;;4873737;29;20060;-68
2024/02/21 05:15:10;;;;;;;8.52;4.93;;;;;9.10;99125.00;;;;4860417;29;20057;-67
2024/02/21 05:17:37;;;;;;;12.75;6.15;;;;;9.10;99114.00;;;;4845783;29;20426;-66
2024/02/21 05:20:05;;;;;;;11.65;5.72;;;;;9.10;99104.00;;;;4861981;29;20113;-67
2024/02/21 05:22:32;;;;;;;14.88;5.88;;;;;9.10;99094.00;;;;4861798;29;20053;-67
2024/02/21 05:24:59;;;;;;;15.45;6.55;;;;;9.10;99104.00;;;;4862099;29;20053;-67
2024/02/21 05:27:26;;;;;;;11.95;5.82;;;;;9.10;99092.00;;;;4862859;29;20068;-68
2024/02/21 05:29:53;;;;;;;11.43;5.85;;;;;9.10;99095.00;;;;4861579;29;20413;-67
2024/02/21 05:32:20;;;;;;;11.60;5.82;;;;;9.10;99102.00;;;;4862865;29;20050;-67
2024/02/21 05:34:49;;;;;;;15.52;5.80;;;;;9.10;99105.00;;;;4862707;29;20566;-67
2024/02/21 05:37:16;;;;;;;11.65;5.20;;;;;9.10;99108.00;;;;4846534;29;20053;-67
2024/02/21 05:39:43;;;;;;;16.33;5.50;;;;;9.10;99102.00;;;;4862653;29;20073;-67
2024/02/21 05:42:10;;;;;;;11.35;5.40;;;;;9.00;99106.00;;;;4861537;29;20594;-67
2024/02/21 05:44:36;;;;;;;16.63;6.20;;;;;9.00;99112.00;;;;4861149;29;20049;-67
2024/02/21 05:47:03;;;;;;;16.42;5.63;;;;;9.00;99100.00;;;;4862502;29;20060;-67
2024/02/21 05:49:30;;;;;;;10.70;5.50;;;;;9.00;99102.00;;;;4861234;29;20053;-67
2024/02/21 05:51:56;;;;;;;13.02;5.68;;;;;9.00;99092.00;;;;4861967;29;20061;-67
2024/02/21 05:54:23;;;;;;;14.10;5.05;;;;;8.90;99089.00;;;;4860984;29;20045;-67
2024/02/21 05:56:50;;;;;;;13.38;5.05;;;;;8.90;99083.00;;;;4860765;29;20061;-67
2024/02/21 05:59:16;;;;;;;12.82;5.43;;;;;9.00;99088.00;;;;4861040;29;20054;-67
2024/02/21 06:01:43;;;;;;;14.57;5.65;;;;;9.00;99092.00;;;;4861602;29;20084;-67
2024/02/21 06:04:09;;;;;;;17.52;5.30;;;;;8.90;99093.00;;;;4862131;29;20058;-67
2024/02/21 06:06:36;;;;;;;10.02;4.57;;;;;8.90;99081.00;;;;4862286;29;20128;-67
2024/02/21 06:09:03;;;;;;;14.75;6.32;;;;;8.90;99079.00;;;;4860903;29;20045;-67
2024/02/21 06:11:29;;;;;;;17.63;5.50;;;;;8.90;99090.00;;;;4861578;29;20050;-67
2024/02/21 06:13:56;;;;;;;9.85;5.07;;;;;9.00;99084.00;;;;4861537;29;20057;-67
2024/02/21 06:16:23;;;;;;;17.42;5.32;;;;;9.10;99091.00;;;;4863940;29;20129;-67
2024/02/21 06:18:49;;;;;;;14.02;5.57;;;;;9.00;99083.00;;;;4862131;29;20467;-67
2024/02/21 06:21:16;;;;;;;11.45;5.10;;;;;9.00;99076.00;;;;4861703;29;20041;-67
2024/02/21 06:23:43;;;;;;;13.10;5.22;;;;;8.90;99073.00;;;;4861643;29;20148;-67
2024/02/21 06:26:09;;;;;;;15.02;5.72;;;;;9.00;99064.00;;;;4860907;29;20053;-67
2024/02/21 06:28:36;;;;;;;14.25;4.82;;;;;9.00;99068.00;;;;4861198;29;20056;-67
2024/02/21 06:31:03;;;;;;;12.40;4.97;;;;;9.00;99064.00;;;;4860105;29;20076;-67
2024/02/21 06:33:29;;;;;;;15.40;5.15;;;;;9.10;99069.00;;;;4861962;29;20113;-67
2024/02/21 06:35:56;;;;;;;10.23;5.07;;;;;9.10;99065.00;;;;4860982;29;20057;-66
2024/02/21 06:38:23;;;;;;;12.80;5.60;;;;;9.20;99072.00;;;;4861387;29;20410;-66
2024/02/21 06:40:52;;;;;;;11.40;5.25;;;;;9.20;99085.00;;;;4859389;29;20072;-67
2024/02/21 06:43:20;;;;;;;14.15;5.30;;;;;9.20;99074.00;;;;4859258;29;20049;-67
2024/02/21 06:45:50;;;;;;;15.95;5.60;;;;;9.30;99067.00;;;;4859400;29;20053;-67
2024/02/21 06:48:18;;;;;;;10.48;5.00;;;;;9.30;99075.00;;;;4859453;29;20057;-66
2024/02/21 06:50:45;;;;;;;10.43;4.40;;;;;9.30;99067.00;;;;4858958;29;20514;-66
2024/02/21 06:53:12;;;;;;;14.32;5.50;;;;;9.20;99059.00;;;;4860424;29;20060;-66
2024/02/21 06:55:38;;;;;;;13.93;4.68;;;;;9.20;99064.00;;;;4860219;29;20132;-66
2024/02/21 06:58:08;;;;;;;15.60;5.40;;;;;9.30;99069.00;;;;4844124;29;20049;-66
2024/02/21 07:00:35;;;;;;;13.43;5.15;;;;;9.30;99054.00;;;;4859087;29;20846;-65
2024/02/21 07:03:02;;;;;;;16.35;5.18;;;;;9.30;99058.00;;;;4844104;29;20060;-64
2024/02/21 07:05:29;;;;;;;10.25;4.45;;;;;9.30;99062.00;;;;4859013;29;20410;-66
2024/02/21 07:07:56;;;;;;;10.60;5.00;;;;;9.30;99047.00;;;;4859071;29;20423;-66
2024/02/21 07:10:23;;;;;;;14.27;5.70;;;;;9.30;99058.00;;;;4858883;29;20045;-66
2024/02/21 07:12:51;;;;;;;14.20;5.13;;;;;9.40;99051.00;;;;4858907;29;20407;-67
2024/02/21 07:15:18;;;;;;;10.63;5.43;;;;;9.40;99057.00;;;;4856024;29;20050;-66
2024/02/21 07:17:45;;;;;;;16.25;5.40;;;;;9.40;99065.00;;;;4856156;29;20050;-66
2024/02/21 07:20:11;;;;;;;11.98;4.70;;;;;9.40;99067.00;;;;4856115;29;20057;-65
2024/02/21 07:22:38;;;;;;;9.75;5.00;;;;;9.40;99065.00;;;;4855737;29;20057;-66
2024/02/21 07:25:05;;;;;;;13.43;5.55;;;;;9.40;99068.00;;;;4841964;29;20050;-66
2024/02/21 07:27:33;;;;;;;14.00;5.22;;;;;9.40;99065.00;;;;4855997;29;20050;-66
2024/02/21 07:29:59;;;;;;;12.15;5.53;;;;;9.30;99070.00;;;;4855425;29;20096;-66
2024/02/21 07:32:26;;;;;;;17.77;5.70;;;;;9.40;99066.00;;;;4841499;29;20042;-66
2024/02/21 07:34:53;;;;;;;16.40;5.43;;;;;9.40;99059.00;;;;4855778;29;20053;-66
2024/02/21 07:37:19;;;;;;;16.95;5.95;;;;;9.50;99056.00;;;;4855952;29;20050;-66
2024/02/21 07:39:46;;;;;;;13.02;5.88;;;;;9.60;99054.00;;;;4855618;29;20057;-66
2024/02/21 07:42:13;;;;;;;11.30;4.70;;;;;9.60;99055.00;;;;4858219;29;20081;-68
2024/02/21 07:44:40;;;;;;;13.88;5.32;;;;;9.70;99048.00;;;;4860331;29;20463;-67
2024/02/21 07:47:07;;;;;;;10.52;5.10;;;;;9.70;99038.00;;;;4860374;29;20060;-68
2024/02/21 07:49:41;;;;;;;10.13;4.97;;;;;9.70;99047.00;;;;4859042;29;20072;-68
2024/02/21 07:52:08;;;;;;;13.55;6.13;;;;;9.70;99036.00;;;;4858662;29;20499;-67
2024/02/21 07:54:35;;;;;;;17.05;5.25;;;;;9.60;99034.00;;;;4859898;29;20088;-67
2024/02/21 07:57:02;;;;;;;14.63;5.13;;;;;9.60;99030.00;;;;4858363;29;20060;-68
2024/02/21 07:59:29;;;;;;;15.18;5.07;;;;;9.60;99021.00;;;;4859728;29;20061;-67
2024/02/21 08:01:59;;;;;;;10.93;4.75;;;;;9.70;99026.00;;;;4859611;29;20110;-67
2024/02/21 08:04:26;;;;;;;10.40;4.72;;;;;9.70;99020.00;;;;4859625;29;20149;-67
2024/02/21 08:06:56;;;;;;;12.32;5.72;;;;;9.80;99025.00;;;;4859810;29;20054;-70
2024/02/21 08:09:22;;;;;;;9.10;4.55;;;;;9.80;99021.00;;;;4858555;29;20102;-68
2024/02/21 08:11:49;;;;;;;15.93;5.05;;;;;9.90;99011.00;;;;4857786;29;20402;-68
2024/02/21 08:14:17;;;;;;;12.13;5.40;;;;;10.00;99019.00;;;;4855220;29;20520;-68
2024/02/21 08:16:47;;;;;;;9.80;4.53;;;;;10.10;99008.00;;;;4889466;29;20053;-68
2024/02/21 08:19:14;;;;;;;12.52;4.95;;;;;10.20;99006.00;;;;4859438;29;20050;-68
2024/02/21 08:21:40;;;;;;;12.88;5.10;;;;;10.20;99016.00;;;;4858015;29;20499;-68
2024/02/21 08:24:07;;;;;;;13.85;5.40;;;;;10.30;99008.00;;;;4858462;29;20049;-69
2024/02/21 08:29:29;;;;;;;16.30;4.55;;;;;10.40;98986.00;;;;4902356;24;20058;-69
2024/02/21 08:31:55;;;;;;;12.55;4.40;;;;;10.50;98992.00;;;;4863131;29;20046;-69
2024/02/21 08:34:22;;;;;;;11.98;4.88;;;;;10.60;99000.00;;;;4864524;29;20053;-69
2024/02/21 08:36:49;;;;;;;11.73;3.97;;;;;10.60;99002.00;;;;4864106;29;20057;-69
2024/02/21 08:39:16;;;;;;;13.10;4.93;;;;;10.60;99003.00;;;;4848177;29;20544;-67
2024/02/21 08:41:43;;;;;;;19.30;5.28;;;;;10.60;99002.00;;;;4865840;29;20046;-67
2024/02/21 08:44:25;;;;;;;13.32;4.78;;;;;10.70;99001.00;;;;4866251;29;20455;-67
2024/02/21 08:46:52;;;;;;;12.95;4.63;;;;;10.70;99000.00;;;;4861422;29;20080;-67
2024/02/21 08:49:19;;;;;;;15.80;4.55;;;;;10.60;98999.00;;;;4861440;29;20144;-67
2024/02/21 08:51:46;;;;;;;17.60;6.47;;;;;10.70;98984.00;;;;4862430;29;20109;-68
2024/02/21 08:54:12;;;;;;;13.20;4.65;;;;;10.90;98986.00;;;;4861304;29;20471;-67
2024/02/21 08:56:39;;;;;;;17.15;6.22;;;;;11.00;98982.00;;;;4861278;29;20384;-68
2024/02/21 08:59:05;;;;;;;8.93;4.22;;;;;11.00;98978.00;;;;4860950;29;20069;-67
2024/02/21 09:01:34;;;;;;;16.45;5.63;;;;;11.00;98972.00;;;;4860789;29;20513;-67
2024/02/21 09:04:02;;;;;;;10.63;4.68;;;;;11.00;98963.00;;;;4861347;29;20279;-68
2024/02/21 09:06:29;;;;;;;9.90;4.55;;;;;10.90;98952.00;;;;4876289;29;20072;-68
2024/02/21 09:08:57;;;;;;;19.98;6.80;;;;;10.90;98952.00;;;;4860680;29;20061;-66
2024/02/21 09:11:24;;;;;;;15.90;5.47;;;;;11.00;98950.00;;;;4845538;29;20077;-66
2024/02/21 09:13:51;;;;;;;16.10;5.25;;;;;11.20;98951.00;;;;4861939;29;20105;-66
2024/02/21 09:16:18;;;;;;;9.88;3.85;;;;;11.30;98952.00;;;;4861103;29;20053;-69
2024/02/21 09:18:44;;;;;;;15.35;4.35;;;;;11.40;98945.00;;;;4862316;29;20045;-68
2024/02/21 09:21:11;;;;;;;13.38;4.03;;;;;11.30;98944.00;;;;4861908;29;20387;-68
2024/02/21 09:23:37;;;;;;;12.43;4.28;;;;;11.20;98945.00;;;;4862335;29;20045;-67
2024/02/21 09:26:04;;;;;;;15.75;5.50;;;;;11.30;98937.00;;;;4862093;29;20561;-67
2024/02/21 09:28:31;;;;;;;11.20;4.60;;;;;11.30;98943.00;;;;4860087;29;20073;-68
2024/02/21 09:30:57;;;;;;;9.68;4.10;;;;;11.30;98942.00;;;;4860197;29;20045;-68
2024/02/21 09:33:24;;;;;;;12.20;4.55;;;;;11.30;98936.00;;;;4864606;29;20054;-69
2024/02/21 09:35:58;;;;;;;14.52;4.82;;;;;11.40;98933.00;;;;4861118;29;20045;-67
2024/02/21 09:38:25;;;;;;;12.52;4.20;;;;;11.50;98927.00;;;;4860178;29;20065;-69
2024/02/21 09:41:10;;;;;;;11.60;4.10;;;;;11.60;98921.00;;;;4860083;29;20054;-67
2024/02/21 09:43:40;;;;;;;12.32;4.55;;;;;11.70;98908.00;;;;4860186;29;20057;-67
2024/02/21 09:46:10;;;;;;;14.02;4.63;;;;;11.70;98906.00;;;;4861595;29;20094;-67
2024/02/21 09:49:00;;;;;;;14.88;4.93;;;;;11.80;98907.00;;;;4861990;29;20049;-68
2024/02/21 09:51:30;;;;;;;10.85;4.85;;;;;11.80;98902.00;;;;4861700;29;20056;-69
2024/02/21 09:53:57;;;;;;;10.77;3.63;;;;;11.90;98898.00;;;;4861531;29;20060;-69
2024/02/21 09:56:40;;;;;;;11.52;3.67;;;;;11.90;98890.00;;;;4862028;29;20049;-69
2024/02/21 09:59:07;;;;;;;11.32;3.78;;;;;11.90;98899.00;;;;4861318;29;20053;-68
2024/02/21 10:01:34;;;;;;;11.35;3.88;;;;;11.90;98896.00;;;;4861205;29;20037;-68
2024/02/21 10:04:02;;;;;;;7.93;3.50;;;;;11.90;98891.00;;;;4861632;29;20073;-67
2024/02/21 10:06:29;;;;;;;12.38;3.65;;;;;12.00;98890.00;;;;4861833;29;20052;-66
2024/02/21 10:08:57;;;;;;;9.23;3.65;;;;;12.00;98892.00;;;;4861556;29;20049;-67
2024/02/21 10:11:25;;;;;;;15.98;4.60;;;;;12.00;98898.00;;;;4861185;29;20081;-67
2024/02/21 10:14:03;;;;;;;8.43;3.47;;;;;12.00;98889.00;;;;4860028;29;20059;-67
2024/02/21 10:16:30;;;;;;;14.80;5.18;;;;;12.20;98890.00;;;;4861243;29;20045;-67
2024/02/21 10:18:57;;;;;;;10.32;3.95;;;;;12.20;98889.00;;;;4861251;29;20526;-67
2024/02/21 10:21:23;;;;;;;13.57;4.35;;;;;12.30;98875.00;;;;4860561;29;20451;-67
2024/02/21 10:23:51;;;;;;;12.65;5.13;;;;;12.40;98881.00;;;;4860919;29;20041;-67
2024/02/21 10:26:19;;;;;;;13.93;4.32;;;;;12.50;98871.00;;;;4860270;29;20136;-67
2024/02/21 10:28:51;;;;;;;8.95;3.80;;;;;12.40;98866.00;;;;4861014;29;20524;-67
2024/02/21 10:31:26;;;;;;;12.05;4.53;;;;;12.30;98856.00;;;;4853789;29;20085;-68
2024/02/21 10:33:55;;;;;;;11.20;3.50;;;;;12.30;98857.00;;;;4861012;29;20042;-66
2024/02/21 10:36:21;;;;;;;8.88;3.45;;;;;12.20;98864.00;;;;4861449;29;20455;-66
2024/02/21 10:38:48;;;;;;;10.50;3.25;;;;;12.10;98855.00;;;;4860913;29;20117;-66
2024/02/21 10:41:17;;;;;;;10.30;4.93;;;;;12.20;98845.00;;;;4859969;29;20052;-66
2024/02/21 10:43:51;;;;;;;11.38;4.40;;;;;12.20;98850.00;;;;4860672;29;20053;-66
2024/02/21 10:46:19;;;;;;;9.73;3.25;;;;;12.20;98850.00;;;;4860876;29;20061;-66
2024/02/21 10:48:47;;;;;;;9.65;3.30;;;;;12.10;98837.00;;;;4859939;29;20049;-65
2024/02/21 10:51:17;;;;;;;12.15;3.40;;;;;12.20;98840.00;;;;4860685;29;20082;-66
2024/02/21 10:53:52;;;;;;;13.18;4.30;;;;;12.20;98835.00;;;;4859899;29;20049;-65
2024/02/21 10:56:28;;;;;;;8.95;3.60;;;;;12.30;98828.00;;;;4859663;29;20109;-65
2024/02/21 10:58:57;;;;;;;13.60;5.72;;;;;12.40;98826.00;;;;4860649;29;20041;-67
2024/02/21 11:01:27;;;;;;;12.07;4.00;;;;;12.40;98828.00;;;;4860454;29;20053;-67
2024/02/21 11:03:55;;;;;;;9.73;3.40;;;;;12.30;98829.00;;;;4873899;29;20125;-67
2024/02/21 11:06:23;;;;;;;10.98;4.07;;;;;12.30;98825.00;;;;4859205;29;20050;-67
2024/02/21 11:09:09;;;;;;;7.60;3.53;;;;;12.30;98830.00;;;;4859330;29;20063;-67
2024/02/21 11:11:41;;;;;;;11.70;3.42;;;;;12.30;98818.00;;;;4859170;29;20057;-67
2024/02/21 11:14:15;;;;;;;11.13;4.70;;;;;12.40;98815.00;;;;4859159;29;20049;-67
2024/02/21 11:16:42;;;;;;;9.77;5.28;;;;;12.50;98823.00;;;;4859832;29;20207;-67
2024/02/21 11:19:18;;;;;;;9.90;4.18;;;;;12.60;98814.00;;;;4861398;29;20053;-67
2024/02/21 11:21:46;;;;;;;11.13;3.72;;;;;12.50;98799.00;;;;4859320;29;20077;-67
2024/02/21 11:24:29;;;;;;;7.63;3.20;;;;;12.50;98800.00;;;;4860677;29;20049;-66
2024/02/21 11:27:12;;;;;;;10.48;3.85;;;;;12.60;98801.00;;;;4860581;29;20049;-67
2024/02/21 11:29:52;;;;;;;22.98;9.77;;;;;12.60;98798.00;;;;4868258;29;20045;-67
2024/02/21 11:32:20;;;;;;;12.80;4.97;;;;;12.70;98800.00;;;;4842029;29;20069;-67
2024/02/21 11:35:19;;;;;;;20.92;8.82;;;;;12.90;98782.00;;;;4841697;29;20531;-66
2024/02/21 11:37:46;;;;;;;12.80;4.28;;;;;12.90;98779.00;;;;4841120;29;20042;-66
2024/02/21 11:40:13;;;;;;;10.43;5.10;;;;;12.90;98776.00;;;;4841692;29;20085;-66
2024/02/21 11:42:39;;;;;;;18.48;8.10;;;;;12.80;98769.00;;;;4841591;29;20048;-66
2024/02/21 11:45:08;;;;;;;11.75;5.43;;;;;12.80;98764.00;;;;4841730;29;20069;-66
2024/02/21 11:47:38;;;;;;;11.85;4.35;;;;;12.80;98755.00;;;;4828671;29;20088;-66
2024/02/21 11:50:10;;;;;;;12.90;5.63;;;;;12.80;98757.00;;;;4853003;29;20114;-66
2024/02/21 11:52:36;;;;;;;17.45;8.82;;;;;12.90;98742.00;;;;4849641;29;20075;-66
2024/02/21 11:55:04;;;;;;;11.68;5.60;;;;;12.90;98750.00;;;;4864883;29;20079;-66
2024/02/21 11:57:32;;;;;;;12.98;4.57;;;;;12.90;98733.00;;;;4849043;29;20050;-66
2024/02/21 11:59:58;;;;;;;9.43;3.40;;;;;13.00;98728.00;;;;4868071;29;20045;-66
2024/02/21 12:02:30;;;;;;;12.77;4.07;;;;;13.00;98726.00;;;;4868905;29;20042;-66
2024/02/21 12:04:57;;;;;;;9.57;3.22;;;;;13.10;98730.00;;;;4868509;29;20168;-66
2024/02/21 12:07:24;;;;;;;7.18;2.80;;;;;13.10;98727.00;;;;4868163;29;20108;-66
2024/02/21 12:09:51;;;;;;;8.60;3.15;;;;;13.10;98724.00;;;;4868712;29;20057;-66
2024/02/21 12:12:20;;;;;;;10.75;3.35;;;;;13.00;98718.00;;;;4867864;29;20117;-66
2024/02/21 12:14:55;;;;;;;8.10;2.45;;;;;13.00;98704.00;;;;4868371;29;20053;-66
2024/02/21 12:17:22;;;;;;;6.57;2.55;;;;;13.00;98701.00;;;;4871981;29;20049;-66
2024/02/21 12:19:50;;;;;;;8.07;2.50;;;;;12.90;98691.00;;;;4870817;29;20053;-65
2024/02/21 12:22:18;;;;;;;5.88;2.78;;;;;12.90;98681.00;;;;4855645;29;20144;-66